Farber, Missouri
Current Conditions -  °F | °C
As of 11:55 PM on Monday 26 Jan 2015 (Local Time) from KHAE Reporting Station
Scattered Clouds Scattered Clouds  
Wind Chill: 35°   Ceiling: Unl
Heat Index: 41°   Visibility: 10mi
Dew Point: 34°   Wind: 9mph
Humidity: 76%   Direction: 320°NW
Pressure: 29.93"   Gusts: NA
Location:  39.27°N, 91.57°W
Report Text: KHAE 270555Z AUTO 32008KT 10SM SCT025 SCT034 SCT044 05/01 A2993 RMK AO2
Loading
Personal Weather Stations






























Interactive Weather Map New forecast layout! Learn more

10-Day Weather Forecast

Advertisements
Track Severe Weather on mobile